sensor_id;sensor_type;location;lat;lon;timestamp;P1;durP1;ratioP1;P2;durP2;ratioP2
39218;SDS011;24934;52.752;6.964;2023-08-31T00:02:09;24.20;;;21.60;;
39218;SDS011;24934;52.752;6.964;2023-08-31T00:04:35;28.20;;;22.77;;
39218;SDS011;24934;52.752;6.964;2023-08-31T00:07:01;28.27;;;22.77;;
39218;SDS011;24934;52.752;6.964;2023-08-31T00:09:26;25.13;;;22.40;;
39218;SDS011;24934;52.752;6.964;2023-08-31T00:11:54;24.47;;;21.93;;
39218;SDS011;24934;52.752;6.964;2023-08-31T00:14:21;26.50;;;22.80;;
39218;SDS011;24934;52.752;6.964;2023-08-31T00:16:47;25.43;;;21.93;;
39218;SDS011;24934;52.752;6.964;2023-08-31T00:19:13;24.10;;;21.60;;
39218;SDS011;24934;52.752;6.964;2023-08-31T00:21:39;25.77;;;22.63;;
39218;SDS011;24934;52.752;6.964;2023-08-31T00:24:06;23.50;;;21.08;;
39218;SDS011;24934;52.752;6.964;2023-08-31T00:26:33;28.15;;;21.73;;
39218;SDS011;24934;52.752;6.964;2023-08-31T00:28:59;31.30;;;22.47;;
39218;SDS011;24934;52.752;6.964;2023-08-31T00:31:24;24.53;;;22.00;;
39218;SDS011;24934;52.752;6.964;2023-08-31T00:33:52;26.33;;;22.40;;
39218;SDS011;24934;52.752;6.964;2023-08-31T00:36:18;25.13;;;22.37;;
39218;SDS011;24934;52.752;6.964;2023-08-31T00:38:44;27.47;;;22.37;;
39218;SDS011;24934;52.752;6.964;2023-08-31T00:41:09;25.90;;;23.27;;
39218;SDS011;24934;52.752;6.964;2023-08-31T00:43:37;27.87;;;25.03;;
39218;SDS011;24934;52.752;6.964;2023-08-31T00:46:03;26.80;;;23.47;;
39218;SDS011;24934;52.752;6.964;2023-08-31T00:48:29;27.73;;;24.70;;
39218;SDS011;24934;52.752;6.964;2023-08-31T00:50:54;29.10;;;22.70;;
39218;SDS011;24934;52.752;6.964;2023-08-31T00:53:21;29.00;;;22.93;;
39218;SDS011;24934;52.752;6.964;2023-08-31T00:55:48;25.63;;;23.10;;
39218;SDS011;24934;52.752;6.964;2023-08-31T00:58:13;26.60;;;22.87;;
39218;SDS011;24934;52.752;6.964;2023-08-31T01:03:35;33.80;;;23.67;;
39218;SDS011;24934;52.752;6.964;2023-08-31T01:06:41;34.33;;;25.77;;
39218;SDS011;24934;52.752;6.964;2023-08-31T01:09:27;27.87;;;24.37;;
39218;SDS011;24934;52.752;6.964;2023-08-31T01:12:06;29.77;;;24.90;;
39218;SDS011;24934;52.752;6.964;2023-08-31T01:15:04;28.80;;;23.80;;
39218;SDS011;24934;52.752;6.964;2023-08-31T01:17:34;28.37;;;23.30;;
39218;SDS011;24934;52.752;6.964;2023-08-31T01:20:07;28.17;;;24.27;;
39218;SDS011;24934;52.752;6.964;2023-08-31T01:25:08;35.00;;;26.00;;
39218;SDS011;24934;52.752;6.964;2023-08-31T01:27:37;32.47;;;26.17;;
39218;SDS011;24934;52.752;6.964;2023-08-31T01:30:04;29.27;;;24.23;;
39218;SDS011;24934;52.752;6.964;2023-08-31T01:32:34;27.07;;;24.27;;
39218;SDS011;24934;52.752;6.964;2023-08-31T01:35:01;32.87;;;25.80;;
39218;SDS011;24934;52.752;6.964;2023-08-31T01:40:16;31.97;;;25.07;;
39218;SDS011;24934;52.752;6.964;2023-08-31T01:42:46;30.63;;;24.60;;
39218;SDS011;24934;52.752;6.964;2023-08-31T01:45:15;33.27;;;25.60;;
39218;SDS011;24934;52.752;6.964;2023-08-31T01:48:00;37.77;;;25.37;;
39218;SDS011;24934;52.752;6.964;2023-08-31T01:50:26;30.93;;;24.90;;
39218;SDS011;24934;52.752;6.964;2023-08-31T01:52:52;29.57;;;25.97;;
39218;SDS011;24934;52.752;6.964;2023-08-31T01:55:24;32.47;;;25.37;;
39218;SDS011;24934;52.752;6.964;2023-08-31T01:57:49;30.40;;;24.90;;
39218;SDS011;24934;52.752;6.964;2023-08-31T02:00:19;31.47;;;25.27;;
39218;SDS011;24934;52.752;6.964;2023-08-31T02:02:45;30.87;;;25.27;;
39218;SDS011;24934;52.752;6.964;2023-08-31T02:05:10;37.03;;;25.47;;
39218;SDS011;24934;52.752;6.964;2023-08-31T02:07:36;35.93;;;26.73;;
39218;SDS011;24934;52.752;6.964;2023-08-31T02:10:02;30.07;;;26.57;;
39218;SDS011;24934;52.752;6.964;2023-08-31T02:12:31;32.03;;;27.47;;
39218;SDS011;24934;52.752;6.964;2023-08-31T02:14:57;34.47;;;27.47;;
39218;SDS011;24934;52.752;6.964;2023-08-31T02:17:23;34.90;;;26.53;;
39218;SDS011;24934;52.752;6.964;2023-08-31T02:19:50;36.20;;;29.10;;
39218;SDS011;24934;52.752;6.964;2023-08-31T02:22:16;37.40;;;28.40;;
39218;SDS011;24934;52.752;6.964;2023-08-31T02:24:42;38.33;;;30.60;;
39218;SDS011;24934;52.752;6.964;2023-08-31T02:27:07;39.40;;;31.17;;
39218;SDS011;24934;52.752;6.964;2023-08-31T02:29:33;41.90;;;32.93;;
39218;SDS011;24934;52.752;6.964;2023-08-31T02:31:59;37.60;;;33.50;;
39218;SDS011;24934;52.752;6.964;2023-08-31T02:34:26;42.80;;;33.67;;
39218;SDS011;24934;52.752;6.964;2023-08-31T02:36:52;43.37;;;33.37;;
39218;SDS011;24934;52.752;6.964;2023-08-31T02:39:18;45.63;;;35.85;;
39218;SDS011;24934;52.752;6.964;2023-08-31T02:41:43;48.28;;;34.33;;
39218;SDS011;24934;52.752;6.964;2023-08-31T02:44:10;46.95;;;34.50;;
39218;SDS011;24934;52.752;6.964;2023-08-31T02:46:36;55.37;;;39.70;;
39218;SDS011;24934;52.752;6.964;2023-08-31T02:49:02;52.60;;;38.72;;
39218;SDS011;24934;52.752;6.964;2023-08-31T02:51:27;51.53;;;38.30;;
39218;SDS011;24934;52.752;6.964;2023-08-31T02:53:53;51.67;;;38.97;;
39218;SDS011;24934;52.752;6.964;2023-08-31T02:56:19;51.17;;;38.70;;
39218;SDS011;24934;52.752;6.964;2023-08-31T02:58:44;47.50;;;37.80;;
39218;SDS011;24934;52.752;6.964;2023-08-31T03:01:10;47.47;;;38.47;;
39218;SDS011;24934;52.752;6.964;2023-08-31T03:03:38;51.47;;;38.50;;
39218;SDS011;24934;52.752;6.964;2023-08-31T03:06:08;57.00;;;41.27;;
39218;SDS011;24934;52.752;6.964;2023-08-31T03:08:35;54.20;;;40.63;;
39218;SDS011;24934;52.752;6.964;2023-08-31T03:11:01;53.30;;;40.43;;
39218;SDS011;24934;52.752;6.964;2023-08-31T03:13:27;50.27;;;40.57;;
39218;SDS011;24934;52.752;6.964;2023-08-31T03:15:53;52.37;;;39.97;;
39218;SDS011;24934;52.752;6.964;2023-08-31T03:18:19;53.33;;;42.17;;
39218;SDS011;24934;52.752;6.964;2023-08-31T03:20:45;50.30;;;41.40;;
39218;SDS011;24934;52.752;6.964;2023-08-31T03:23:10;52.00;;;44.00;;
39218;SDS011;24934;52.752;6.964;2023-08-31T03:25:36;48.33;;;41.07;;
39218;SDS011;24934;52.752;6.964;2023-08-31T03:28:02;54.40;;;43.37;;
39218;SDS011;24934;52.752;6.964;2023-08-31T03:30:28;50.47;;;40.77;;
39218;SDS011;24934;52.752;6.964;2023-08-31T03:32:54;46.97;;;40.97;;
39218;SDS011;24934;52.752;6.964;2023-08-31T03:35:19;46.17;;;39.07;;
39218;SDS011;24934;52.752;6.964;2023-08-31T03:37:49;50.13;;;39.97;;
39218;SDS011;24934;52.752;6.964;2023-08-31T03:40:14;49.47;;;39.80;;
39218;SDS011;24934;52.752;6.964;2023-08-31T03:42:40;45.97;;;39.10;;
39218;SDS011;24934;52.752;6.964;2023-08-31T03:45:06;44.97;;;37.53;;
39218;SDS011;24934;52.752;6.964;2023-08-31T03:47:32;42.53;;;37.87;;
39218;SDS011;24934;52.752;6.964;2023-08-31T03:50:00;40.70;;;36.30;;
39218;SDS011;24934;52.752;6.964;2023-08-31T03:52:26;47.10;;;37.87;;
39218;SDS011;24934;52.752;6.964;2023-08-31T03:54:51;47.50;;;37.70;;
39218;SDS011;24934;52.752;6.964;2023-08-31T03:57:17;41.37;;;36.83;;
39218;SDS011;24934;52.752;6.964;2023-08-31T03:59:43;43.87;;;39.07;;
39218;SDS011;24934;52.752;6.964;2023-08-31T04:02:09;41.20;;;36.10;;
39218;SDS011;24934;52.752;6.964;2023-08-31T04:04:34;40.63;;;36.40;;
39218;SDS011;24934;52.752;6.964;2023-08-31T04:07:00;40.40;;;35.57;;
39218;SDS011;24934;52.752;6.964;2023-08-31T04:09:26;39.87;;;35.73;;
39218;SDS011;24934;52.752;6.964;2023-08-31T04:11:52;43.00;;;38.67;;
39218;SDS011;24934;52.752;6.964;2023-08-31T04:14:26;43.07;;;38.57;;
39218;SDS011;24934;52.752;6.964;2023-08-31T04:16:53;41.03;;;36.90;;
39218;SDS011;24934;52.752;6.964;2023-08-31T04:19:19;42.00;;;37.60;;
39218;SDS011;24934;52.752;6.964;2023-08-31T04:21:47;44.20;;;39.47;;
39218;SDS011;24934;52.752;6.964;2023-08-31T04:24:13;40.40;;;36.07;;
39218;SDS011;24934;52.752;6.964;2023-08-31T04:26:42;41.33;;;37.03;;
39218;SDS011;24934;52.752;6.964;2023-08-31T04:29:09;43.67;;;39.40;;
39218;SDS011;24934;52.752;6.964;2023-08-31T04:31:35;43.23;;;38.90;;
39218;SDS011;24934;52.752;6.964;2023-08-31T04:34:04;43.93;;;38.13;;
39218;SDS011;24934;52.752;6.964;2023-08-31T04:36:29;40.43;;;36.33;;
39218;SDS011;24934;52.752;6.964;2023-08-31T04:38:55;40.23;;;36.27;;
39218;SDS011;24934;52.752;6.964;2023-08-31T04:41:21;39.13;;;35.43;;
39218;SDS011;24934;52.752;6.964;2023-08-31T04:43:46;43.67;;;39.17;;
39218;SDS011;24934;52.752;6.964;2023-08-31T04:46:15;41.63;;;37.13;;
39218;SDS011;24934;52.752;6.964;2023-08-31T04:48:41;39.47;;;35.37;;
39218;SDS011;24934;52.752;6.964;2023-08-31T04:51:06;38.03;;;34.13;;
39218;SDS011;24934;52.752;6.964;2023-08-31T04:53:51;36.53;;;32.33;;
39218;SDS011;24934;52.752;6.964;2023-08-31T04:56:20;37.40;;;33.33;;
39218;SDS011;24934;52.752;6.964;2023-08-31T04:58:45;35.93;;;32.30;;
39218;SDS011;24934;52.752;6.964;2023-08-31T05:01:11;36.50;;;32.93;;
39218;SDS011;24934;52.752;6.964;2023-08-31T05:03:37;35.73;;;32.03;;
39218;SDS011;24934;52.752;6.964;2023-08-31T05:06:08;35.70;;;32.00;;
39218;SDS011;24934;52.752;6.964;2023-08-31T05:08:36;35.87;;;32.10;;
39218;SDS011;24934;52.752;6.964;2023-08-31T05:11:03;34.90;;;31.27;;
39218;SDS011;24934;52.752;6.964;2023-08-31T05:13:29;34.63;;;31.27;;
39218;SDS011;24934;52.752;6.964;2023-08-31T05:15:54;35.40;;;30.43;;
39218;SDS011;24934;52.752;6.964;2023-08-31T05:18:20;34.70;;;31.33;;
39218;SDS011;24934;52.752;6.964;2023-08-31T05:20:49;33.63;;;30.40;;
39218;SDS011;24934;52.752;6.964;2023-08-31T05:23:15;34.00;;;30.17;;
39218;SDS011;24934;52.752;6.964;2023-08-31T05:25:44;32.83;;;29.63;;
39218;SDS011;24934;52.752;6.964;2023-08-31T05:28:09;33.17;;;29.80;;
39218;SDS011;24934;52.752;6.964;2023-08-31T05:30:35;33.10;;;29.77;;
39218;SDS011;24934;52.752;6.964;2023-08-31T05:33:01;34.10;;;30.40;;
39218;SDS011;24934;52.752;6.964;2023-08-31T05:35:30;33.50;;;29.97;;
39218;SDS011;24934;52.752;6.964;2023-08-31T05:37:55;33.37;;;29.87;;
39218;SDS011;24934;52.752;6.964;2023-08-31T05:40:21;33.60;;;30.30;;
39218;SDS011;24934;52.752;6.964;2023-08-31T05:42:47;33.47;;;30.27;;
39218;SDS011;24934;52.752;6.964;2023-08-31T05:45:13;34.07;;;30.60;;
39218;SDS011;24934;52.752;6.964;2023-08-31T05:47:40;33.70;;;30.30;;
39218;SDS011;24934;52.752;6.964;2023-08-31T05:50:08;32.40;;;29.05;;
39218;SDS011;24934;52.752;6.964;2023-08-31T05:52:34;31.63;;;28.43;;
39218;SDS011;24934;52.752;6.964;2023-08-31T05:55:00;32.80;;;29.23;;
39218;SDS011;24934;52.752;6.964;2023-08-31T05:57:26;32.20;;;29.10;;
39218;SDS011;24934;52.752;6.964;2023-08-31T05:59:52;35.43;;;30.00;;
39218;SDS011;24934;52.752;6.964;2023-08-31T06:02:18;34.28;;;30.65;;
39218;SDS011;24934;52.752;6.964;2023-08-31T06:04:47;32.03;;;28.13;;
39218;SDS011;24934;52.752;6.964;2023-08-31T06:07:13;30.83;;;27.60;;
39218;SDS011;24934;52.752;6.964;2023-08-31T06:09:38;31.90;;;28.77;;
39218;SDS011;24934;52.752;6.964;2023-08-31T06:12:05;33.05;;;29.42;;
39218;SDS011;24934;52.752;6.964;2023-08-31T06:14:31;31.75;;;28.42;;
39218;SDS011;24934;52.752;6.964;2023-08-31T06:17:03;31.48;;;28.27;;
39218;SDS011;24934;52.752;6.964;2023-08-31T06:19:29;30.70;;;27.55;;
39218;SDS011;24934;52.752;6.964;2023-08-31T06:21:55;30.83;;;27.67;;
39218;SDS011;24934;52.752;6.964;2023-08-31T06:24:20;33.92;;;28.75;;
39218;SDS011;24934;52.752;6.964;2023-08-31T06:26:46;30.90;;;27.60;;
39218;SDS011;24934;52.752;6.964;2023-08-31T06:29:11;28.88;;;26.08;;
39218;SDS011;24934;52.752;6.964;2023-08-31T06:31:37;29.08;;;26.27;;
39218;SDS011;24934;52.752;6.964;2023-08-31T06:34:03;28.75;;;26.25;;
39218;SDS011;24934;52.752;6.964;2023-08-31T06:36:32;28.67;;;25.65;;
39218;SDS011;24934;52.752;6.964;2023-08-31T06:39:00;29.27;;;26.40;;
39218;SDS011;24934;52.752;6.964;2023-08-31T06:41:29;28.65;;;25.10;;
39218;SDS011;24934;52.752;6.964;2023-08-31T06:43:55;27.60;;;25.00;;
39218;SDS011;24934;52.752;6.964;2023-08-31T06:46:21;26.63;;;24.02;;
39218;SDS011;24934;52.752;6.964;2023-08-31T06:48:47;27.15;;;24.50;;
39218;SDS011;24934;52.752;6.964;2023-08-31T06:51:24;27.70;;;24.83;;
39218;SDS011;24934;52.752;6.964;2023-08-31T06:53:50;24.48;;;22.25;;
39218;SDS011;24934;52.752;6.964;2023-08-31T06:56:16;25.50;;;21.33;;
39218;SDS011;24934;52.752;6.964;2023-08-31T06:58:42;23.13;;;20.90;;
39218;SDS011;24934;52.752;6.964;2023-08-31T07:01:12;22.58;;;19.98;;
39218;SDS011;24934;52.752;6.964;2023-08-31T07:03:38;21.90;;;19.90;;
39218;SDS011;24934;52.752;6.964;2023-08-31T07:06:04;21.98;;;20.08;;
39218;SDS011;24934;52.752;6.964;2023-08-31T07:08:29;21.92;;;19.73;;
39218;SDS011;24934;52.752;6.964;2023-08-31T07:10:55;21.27;;;19.17;;
39218;SDS011;24934;52.752;6.964;2023-08-31T07:13:21;21.08;;;19.10;;
39218;SDS011;24934;52.752;6.964;2023-08-31T07:15:47;21.45;;;19.45;;
39218;SDS011;24934;52.752;6.964;2023-08-31T07:18:14;21.58;;;19.48;;
39218;SDS011;24934;52.752;6.964;2023-08-31T07:20:39;22.08;;;20.05;;
39218;SDS011;24934;52.752;6.964;2023-08-31T07:23:05;22.25;;;20.13;;
39218;SDS011;24934;52.752;6.964;2023-08-31T07:25:31;21.25;;;19.15;;
39218;SDS011;24934;52.752;6.964;2023-08-31T07:27:56;20.83;;;18.85;;
39218;SDS011;24934;52.752;6.964;2023-08-31T07:30:22;21.30;;;19.13;;
39218;SDS011;24934;52.752;6.964;2023-08-31T07:32:48;22.52;;;20.23;;
39218;SDS011;24934;52.752;6.964;2023-08-31T07:35:13;21.25;;;19.23;;
39218;SDS011;24934;52.752;6.964;2023-08-31T07:37:39;21.77;;;19.73;;
39218;SDS011;24934;52.752;6.964;2023-08-31T07:40:06;21.65;;;19.60;;
39218;SDS011;24934;52.752;6.964;2023-08-31T07:42:35;22.27;;;20.20;;
39218;SDS011;24934;52.752;6.964;2023-08-31T07:45:00;22.10;;;19.98;;
39218;SDS011;24934;52.752;6.964;2023-08-31T07:47:26;22.63;;;20.50;;
39218;SDS011;24934;52.752;6.964;2023-08-31T07:49:52;23.25;;;20.90;;
39218;SDS011;24934;52.752;6.964;2023-08-31T07:52:20;24.25;;;21.90;;
39218;SDS011;24934;52.752;6.964;2023-08-31T07:54:45;25.13;;;22.50;;
39218;SDS011;24934;52.752;6.964;2023-08-31T07:57:11;25.10;;;22.50;;
39218;SDS011;24934;52.752;6.964;2023-08-31T07:59:36;25.55;;;22.95;;
39218;SDS011;24934;52.752;6.964;2023-08-31T08:02:04;25.92;;;23.40;;
39218;SDS011;24934;52.752;6.964;2023-08-31T08:04:30;25.83;;;23.13;;
39218;SDS011;24934;52.752;6.964;2023-08-31T08:06:56;25.77;;;23.20;;
39218;SDS011;24934;52.752;6.964;2023-08-31T08:09:21;25.20;;;22.80;;
39218;SDS011;24934;52.752;6.964;2023-08-31T08:11:47;25.05;;;22.55;;
39218;SDS011;24934;52.752;6.964;2023-08-31T08:14:13;25.00;;;22.60;;
39218;SDS011;24934;52.752;6.964;2023-08-31T08:16:40;26.15;;;23.50;;
39218;SDS011;24934;52.752;6.964;2023-08-31T08:19:07;26.23;;;23.60;;
39218;SDS011;24934;52.752;6.964;2023-08-31T08:21:32;25.77;;;23.52;;
39218;SDS011;24934;52.752;6.964;2023-08-31T08:23:58;25.10;;;22.80;;
39218;SDS011;24934;52.752;6.964;2023-08-31T08:26:24;24.98;;;22.63;;
39218;SDS011;24934;52.752;6.964;2023-08-31T08:28:50;25.20;;;22.90;;
39218;SDS011;24934;52.752;6.964;2023-08-31T08:31:15;23.05;;;20.95;;
39218;SDS011;24934;52.752;6.964;2023-08-31T08:33:43;25.00;;;22.70;;
39218;SDS011;24934;52.752;6.964;2023-08-31T08:36:09;26.23;;;23.05;;
39218;SDS011;24934;52.752;6.964;2023-08-31T08:38:35;25.05;;;22.80;;
39218;SDS011;24934;52.752;6.964;2023-08-31T08:41:10;23.20;;;21.20;;
39218;SDS011;24934;52.752;6.964;2023-08-31T08:43:36;24.27;;;22.10;;
39218;SDS011;24934;52.752;6.964;2023-08-31T08:46:05;23.38;;;21.30;;
39218;SDS011;24934;52.752;6.964;2023-08-31T08:48:34;22.95;;;20.63;;
39218;SDS011;24934;52.752;6.964;2023-08-31T08:51:02;21.25;;;19.38;;
39218;SDS011;24934;52.752;6.964;2023-08-31T08:53:28;21.38;;;19.48;;
39218;SDS011;24934;52.752;6.964;2023-08-31T08:55:54;22.30;;;20.38;;
39218;SDS011;24934;52.752;6.964;2023-08-31T08:58:19;21.00;;;19.10;;
39218;SDS011;24934;52.752;6.964;2023-08-31T09:00:46;20.13;;;18.38;;
39218;SDS011;24934;52.752;6.964;2023-08-31T09:03:12;21.73;;;19.52;;
39218;SDS011;24934;52.752;6.964;2023-08-31T09:05:40;20.08;;;18.48;;
39218;SDS011;24934;52.752;6.964;2023-08-31T09:08:08;20.10;;;18.40;;
39218;SDS011;24934;52.752;6.964;2023-08-31T09:10:40;21.02;;;19.15;;
39218;SDS011;24934;52.752;6.964;2023-08-31T09:13:11;226.25;;;155.60;;
39218;SDS011;24934;52.752;6.964;2023-08-31T09:15:42;21.25;;;19.35;;
39218;SDS011;24934;52.752;6.964;2023-08-31T09:20:54;21.83;;;20.13;;
39218;SDS011;24934;52.752;6.964;2023-08-31T09:23:24;19.65;;;18.00;;
39218;SDS011;24934;52.752;6.964;2023-08-31T09:25:53;19.02;;;17.42;;
39218;SDS011;24934;52.752;6.964;2023-08-31T09:28:21;20.80;;;19.13;;
39218;SDS011;24934;52.752;6.964;2023-08-31T09:30:49;18.88;;;17.38;;
39218;SDS011;24934;52.752;6.964;2023-08-31T09:33:18;18.70;;;17.17;;
39218;SDS011;24934;52.752;6.964;2023-08-31T09:38:17;17.13;;;15.57;;
39218;SDS011;24934;52.752;6.964;2023-08-31T09:40:44;16.30;;;15.07;;
39218;SDS011;24934;52.752;6.964;2023-08-31T09:43:18;16.05;;;14.73;;
39218;SDS011;24934;52.752;6.964;2023-08-31T09:45:50;14.48;;;13.48;;
39218;SDS011;24934;52.752;6.964;2023-08-31T09:48:20;15.93;;;14.60;;
39218;SDS011;24934;52.752;6.964;2023-08-31T09:50:51;14.90;;;13.80;;
39218;SDS011;24934;52.752;6.964;2023-08-31T09:53:19;13.48;;;12.48;;
39218;SDS011;24934;52.752;6.964;2023-08-31T09:55:46;14.85;;;13.30;;
39218;SDS011;24934;52.752;6.964;2023-08-31T09:58:16;16.20;;;14.60;;
39218;SDS011;24934;52.752;6.964;2023-08-31T10:00:50;15.85;;;14.60;;
39218;SDS011;24934;52.752;6.964;2023-08-31T10:03:17;15.57;;;14.13;;
39218;SDS011;24934;52.752;6.964;2023-08-31T10:05:45;15.60;;;14.40;;
39218;SDS011;24934;52.752;6.964;2023-08-31T10:08:12;15.40;;;14.20;;
39218;SDS011;24934;52.752;6.964;2023-08-31T10:10:39;15.10;;;13.95;;
39218;SDS011;24934;52.752;6.964;2023-08-31T10:13:05;15.18;;;14.00;;
39218;SDS011;24934;52.752;6.964;2023-08-31T10:15:31;15.48;;;14.27;;
39218;SDS011;24934;52.752;6.964;2023-08-31T10:18:02;14.50;;;13.40;;
39218;SDS011;24934;52.752;6.964;2023-08-31T10:20:29;14.30;;;13.18;;
39218;SDS011;24934;52.752;6.964;2023-08-31T10:23:05;13.25;;;12.10;;
39218;SDS011;24934;52.752;6.964;2023-08-31T10:28:28;14.90;;;13.60;;
39218;SDS011;24934;52.752;6.964;2023-08-31T10:31:04;13.70;;;12.60;;
39218;SDS011;24934;52.752;6.964;2023-08-31T10:33:34;13.82;;;12.52;;
39218;SDS011;24934;52.752;6.964;2023-08-31T10:36:11;14.15;;;12.85;;
39218;SDS011;24934;52.752;6.964;2023-08-31T10:38:42;13.07;;;11.88;;
39218;SDS011;24934;52.752;6.964;2023-08-31T10:41:29;14.45;;;13.02;;
39218;SDS011;24934;52.752;6.964;2023-08-31T10:44:00;13.75;;;12.65;;
39218;SDS011;24934;52.752;6.964;2023-08-31T10:46:44;14.10;;;13.10;;
39218;SDS011;24934;52.752;6.964;2023-08-31T10:51:40;12.40;;;11.50;;
39218;SDS011;24934;52.752;6.964;2023-08-31T10:54:20;11.02;;;10.23;;
39218;SDS011;24934;52.752;6.964;2023-08-31T10:59:42;11.88;;;10.98;;
39218;SDS011;24934;52.752;6.964;2023-08-31T11:05:15;11.27;;;10.30;;
39218;SDS011;24934;52.752;6.964;2023-08-31T11:07:44;10.30;;;9.60;;
39218;SDS011;24934;52.752;6.964;2023-08-31T11:10:18;11.27;;;10.48;;
39218;SDS011;24934;52.752;6.964;2023-08-31T11:12:52;13.10;;;12.20;;
39218;SDS011;24934;52.752;6.964;2023-08-31T11:15:22;12.90;;;11.65;;
39218;SDS011;24934;52.752;6.964;2023-08-31T11:17:50;12.52;;;11.63;;
39218;SDS011;24934;52.752;6.964;2023-08-31T11:20:17;14.98;;;13.68;;
39218;SDS011;24934;52.752;6.964;2023-08-31T11:22:48;12.38;;;11.55;;
39218;SDS011;24934;52.752;6.964;2023-08-31T11:25:15;12.07;;;11.18;;
39218;SDS011;24934;52.752;6.964;2023-08-31T11:27:42;14.00;;;12.90;;
39218;SDS011;24934;52.752;6.964;2023-08-31T11:30:18;13.50;;;12.35;;
39218;SDS011;24934;52.752;6.964;2023-08-31T11:32:50;14.40;;;13.10;;
39218;SDS011;24934;52.752;6.964;2023-08-31T11:35:17;14.02;;;12.77;;
39218;SDS011;24934;52.752;6.964;2023-08-31T11:37:44;12.20;;;11.20;;
39218;SDS011;24934;52.752;6.964;2023-08-31T11:40:10;12.85;;;11.73;;
39218;SDS011;24934;52.752;6.964;2023-08-31T11:42:42;12.18;;;11.10;;
39218;SDS011;24934;52.752;6.964;2023-08-31T11:45:13;11.77;;;10.77;;
39218;SDS011;24934;52.752;6.964;2023-08-31T11:47:39;11.73;;;10.73;;
39218;SDS011;24934;52.752;6.964;2023-08-31T11:50:06;13.00;;;11.90;;
39218;SDS011;24934;52.752;6.964;2023-08-31T11:52:33;14.10;;;12.77;;
39218;SDS011;24934;52.752;6.964;2023-08-31T11:54:59;14.88;;;13.57;;
39218;SDS011;24934;52.752;6.964;2023-08-31T11:57:25;14.52;;;13.38;;
39218;SDS011;24934;52.752;6.964;2023-08-31T11:59:51;14.77;;;13.40;;
39218;SDS011;24934;52.752;6.964;2023-08-31T12:02:18;14.32;;;13.13;;
39218;SDS011;24934;52.752;6.964;2023-08-31T12:04:44;15.02;;;13.80;;
39218;SDS011;24934;52.752;6.964;2023-08-31T12:07:11;14.23;;;12.82;;
39218;SDS011;24934;52.752;6.964;2023-08-31T12:09:47;13.98;;;12.73;;
39218;SDS011;24934;52.752;6.964;2023-08-31T12:12:14;13.23;;;12.18;;
39218;SDS011;24934;52.752;6.964;2023-08-31T12:14:44;12.00;;;11.10;;
39218;SDS011;24934;52.752;6.964;2023-08-31T12:17:09;13.10;;;12.00;;
39218;SDS011;24934;52.752;6.964;2023-08-31T12:19:38;11.65;;;10.65;;
39218;SDS011;24934;52.752;6.964;2023-08-31T12:22:09;13.18;;;11.98;;
39218;SDS011;24934;52.752;6.964;2023-08-31T12:24:39;11.88;;;10.88;;
39218;SDS011;24934;52.752;6.964;2023-08-31T12:27:06;12.00;;;11.00;;
39218;SDS011;24934;52.752;6.964;2023-08-31T12:29:34;12.23;;;11.32;;
39218;SDS011;24934;52.752;6.964;2023-08-31T12:32:00;12.57;;;11.48;;
39218;SDS011;24934;52.752;6.964;2023-08-31T12:34:26;12.13;;;11.13;;
39218;SDS011;24934;52.752;6.964;2023-08-31T12:36:52;12.35;;;11.27;;
39218;SDS011;24934;52.752;6.964;2023-08-31T12:39:18;12.80;;;11.88;;
39218;SDS011;24934;52.752;6.964;2023-08-31T12:41:44;13.10;;;12.10;;
39218;SDS011;24934;52.752;6.964;2023-08-31T12:44:09;12.45;;;11.50;;
39218;SDS011;24934;52.752;6.964;2023-08-31T12:46:38;11.13;;;10.32;;
39218;SDS011;24934;52.752;6.964;2023-08-31T12:49:05;12.80;;;11.90;;
39218;SDS011;24934;52.752;6.964;2023-08-31T12:51:30;12.02;;;11.18;;
39218;SDS011;24934;52.752;6.964;2023-08-31T12:53:57;12.30;;;11.40;;
39218;SDS011;24934;52.752;6.964;2023-08-31T12:56:23;11.50;;;10.60;;
39218;SDS011;24934;52.752;6.964;2023-08-31T12:58:58;11.63;;;10.80;;
39218;SDS011;24934;52.752;6.964;2023-08-31T13:01:23;11.10;;;10.20;;
39218;SDS011;24934;52.752;6.964;2023-08-31T13:03:50;11.90;;;10.90;;
39218;SDS011;24934;52.752;6.964;2023-08-31T13:06:17;13.02;;;11.90;;
39218;SDS011;24934;52.752;6.964;2023-08-31T13:08:43;13.52;;;11.50;;
39218;SDS011;24934;52.752;6.964;2023-08-31T13:11:10;12.93;;;11.93;;
39218;SDS011;24934;52.752;6.964;2023-08-31T13:13:37;12.02;;;11.00;;
39218;SDS011;24934;52.752;6.964;2023-08-31T13:16:03;12.60;;;11.60;;
39218;SDS011;24934;52.752;6.964;2023-08-31T13:18:29;13.10;;;11.82;;
39218;SDS011;24934;52.752;6.964;2023-08-31T13:20:55;12.80;;;11.70;;
39218;SDS011;24934;52.752;6.964;2023-08-31T13:23:21;12.43;;;11.43;;
39218;SDS011;24934;52.752;6.964;2023-08-31T13:25:48;13.60;;;12.30;;
39218;SDS011;24934;52.752;6.964;2023-08-31T13:28:15;12.60;;;11.60;;
39218;SDS011;24934;52.752;6.964;2023-08-31T13:30:41;12.38;;;11.48;;
39218;SDS011;24934;52.752;6.964;2023-08-31T13:33:07;12.93;;;11.63;;
39218;SDS011;24934;52.752;6.964;2023-08-31T13:35:35;11.82;;;10.93;;
39218;SDS011;24934;52.752;6.964;2023-08-31T13:38:01;12.65;;;11.55;;
39218;SDS011;24934;52.752;6.964;2023-08-31T13:40:28;12.43;;;11.18;;
39218;SDS011;24934;52.752;6.964;2023-08-31T13:45:26;12.68;;;11.43;;
39218;SDS011;24934;52.752;6.964;2023-08-31T13:47:56;11.57;;;10.55;;
39218;SDS011;24934;52.752;6.964;2023-08-31T13:50:22;11.88;;;10.98;;
39218;SDS011;24934;52.752;6.964;2023-08-31T13:52:48;12.07;;;11.07;;
39218;SDS011;24934;52.752;6.964;2023-08-31T13:55:13;11.27;;;10.40;;
39218;SDS011;24934;52.752;6.964;2023-08-31T13:57:42;11.68;;;10.73;;
39218;SDS011;24934;52.752;6.964;2023-08-31T14:00:08;12.23;;;11.07;;
39218;SDS011;24934;52.752;6.964;2023-08-31T14:02:35;12.20;;;11.30;;
39218;SDS011;24934;52.752;6.964;2023-08-31T14:05:02;11.90;;;11.00;;
39218;SDS011;24934;52.752;6.964;2023-08-31T14:07:28;12.55;;;11.55;;
39218;SDS011;24934;52.752;6.964;2023-08-31T14:09:54;12.90;;;11.80;;
39218;SDS011;24934;52.752;6.964;2023-08-31T14:12:20;12.23;;;11.07;;
39218;SDS011;24934;52.752;6.964;2023-08-31T14:14:49;11.70;;;10.80;;
39218;SDS011;24934;52.752;6.964;2023-08-31T14:17:15;12.77;;;11.50;;
39218;SDS011;24934;52.752;6.964;2023-08-31T14:19:40;12.20;;;11.20;;
39218;SDS011;24934;52.752;6.964;2023-08-31T14:22:06;12.30;;;11.30;;
39218;SDS011;24934;52.752;6.964;2023-08-31T14:24:32;12.35;;;11.35;;
39218;SDS011;24934;52.752;6.964;2023-08-31T14:26:58;12.68;;;11.48;;
39218;SDS011;24934;52.752;6.964;2023-08-31T14:29:26;12.48;;;11.57;;
39218;SDS011;24934;52.752;6.964;2023-08-31T14:31:52;13.20;;;12.00;;
39218;SDS011;24934;52.752;6.964;2023-08-31T14:34:19;12.57;;;11.60;;
39218;SDS011;24934;52.752;6.964;2023-08-31T14:36:45;14.02;;;12.65;;
39218;SDS011;24934;52.752;6.964;2023-08-31T14:39:10;13.02;;;12.00;;
39218;SDS011;24934;52.752;6.964;2023-08-31T14:41:36;12.02;;;10.95;;
39218;SDS011;24934;52.752;6.964;2023-08-31T14:44:01;11.85;;;10.95;;
39218;SDS011;24934;52.752;6.964;2023-08-31T14:46:27;13.18;;;12.05;;
39218;SDS011;24934;52.752;6.964;2023-08-31T14:48:53;12.38;;;11.45;;
39218;SDS011;24934;52.752;6.964;2023-08-31T14:51:18;12.02;;;11.02;;